Airport details for: EICK (Ireland)

Metar

EICK 111300Z 33018KT 9999 FEW017CB 05/02 Q0996 NOSIG

General details

ICAO: EICK
IATA: ORK
Name (city): Cork
Major:
Country: Ireland
vACC: vACC Ireland
Description:
Scenery links:
FS9 scenery:
FSX/P3D scenery:
XP scenery:
Elevation: 502 ft.
Transition altitude: 5000 ft.
MSA: 6900 ft.
Latitude: 51.841389
Longitude: -8.491111
EICK Charts
EICK Notams
EICK Online stations

Runways

Number Course Length Elevation Lat Lon ILS ILS freq ILS FAC GP
07 68° 4298ft / 1310 m 471ft 51.841606 -8.495997 - - 3.0°
17 165° 6998ft / 2133 m 477ft 51.85027 -8.496439 109.9 165° 3.0°
25 248° 4298ft / 1310 m 502ft 51.84702 -8.479122 - - 3.0°
35 345° 6998ft / 2133 m 460ft 51.832267 -8.485789 109.15 345° 3.0°